FW8265 Weather Reports


time (UTC)temp
F
wind
direction
speed
knots
gust
knots
rain 1hr
in
rain 24hr
in
rain mn
in
humidity
%
barometer
mb
20260903011619 83 0 0.0 0.0 0.00 0.00 0.00 74 1016.9
20260903010113 84 0 0.0 0.0 0.00 0.00 0.00 73 1016.7
20260903004606 85 0 0.0 0.0 0.00 0.00 0.00 71 1016.5
20260903003120 87 0 0.0 0.0 0.00 0.00 0.00 70 1016.5
20260903001600 88 0 0.0 0.0 0.00 0.00 0.00 68 1016.4
20260903000108 89 0 0.0 0.0 0.00 0.00 0.00 65 1016.5
20260902234608 90 0 0.0 0.0 0.00 0.00 0.00 62 1016.4
20260902233058 91 0 0.0 0.0 0.00 0.00 0.00 61 1016.4
20260902231603 92 0 0.0 0.0 0.00 0.00 0.00 60 1016.5
20260902230104 92 0 0.0 0.0 0.00 0.00 0.00 58 1016.6
20260902224601 93 0 0.0 0.0 0.00 0.00 0.00 57 1016.5
20260902223101 94 0 0.0 0.0 0.00 0.00 0.00 56 1016.4
20260902221601 94 0 0.0 1.7 0.00 0.00 0.00 55 1016.6
20260902220058 94 0 0.0 1.7 0.00 0.00 0.00 54 1016.6
20260902214556 94 0 0.0 1.7 0.00 0.00 0.00 53 1016.6
20260902213101 94 183 0.0 0.9 0.00 0.00 0.00 54 1016.6
20260902211600 94 0 0.0 4.3 0.00 0.00 0.00 54 1016.7
20260902210105 95 0 0.0 1.7 0.00 0.00 0.00 54 1016.8
20260902204601 96 0 0.0 2.6 0.00 0.00 0.00 51 1016.8
20260902203105 98 0 0.0 1.7 0.00 0.00 0.00 48 1017.0
20260902201601 99 0 0.0 6.1 0.00 0.00 0.00 48 1017.2
20260902200100 98 0 0.0 2.6 0.00 0.00 0.00 49 1017.3
20260902194602 98 0 0.0 2.6 0.00 0.00 0.00 49 1017.4
20260902193103 96 246 0.0 3.5 0.00 0.00 0.00 52 1017.5
20260902191602 97 0 0.0 1.7 0.00 0.00 0.00 49 1017.6
20260902190109 98 0 0.0 0.0 0.00 0.00 0.00 54 1017.8
20260902184559 98 0 0.0 0.9 0.00 0.00 0.00 53 1018.0
20260902183104 99 0 0.0 0.0 0.00 0.00 0.00 51 1018.1
20260902181558 98 0 0.0 1.7 0.00 0.00 0.00 53 1018.2
20260902180059 98 0 0.0 1.7 0.00 0.00 0.00 50 1018.3
20260902174605 98 0 0.0 0.9 0.00 0.00 0.00 53 1018.4
20260902173059 98 0 0.0 2.6 0.00 0.00 0.00 50 1018.6
20260902171603 99 160 0.0 1.7 0.00 0.00 0.00 49 1018.6
20260902170103 98 0 0.0 2.6 0.00 0.00 0.00 51 1018.6
20260902164607 97 0 0.0 4.3 0.00 0.00 0.00 53 1018.7
20260902163055 97 0 0.0 1.7 0.00 0.00 0.00 56 1018.8
20260902161606 96 0 0.0 0.9 0.00 0.00 0.00 57 1018.9
20260902160109 95 0 0.0 2.6 0.00 0.00 0.00 58 1019.0
20260902154602 94 0 0.0 1.7 0.00 0.00 0.00 61 1019.1
20260902153054 94 40 0.0 2.6 0.00 0.00 0.00 62 1019.3
20260902151609 93 0 0.0 1.7 0.00 0.00 0.00 61 1019.3
20260902150059 92 0 0.0 1.7 0.00 0.00 0.00 64 1019.4
20260902144554 91 0 0.0 1.7 0.00 0.00 0.00 65 1019.3
20260902143107 90 0 0.0 0.0 0.00 0.00 0.00 67 1019.5
20260902141557 90 0 0.0 0.0 0.00 0.00 0.00 70 1019.5
20260902140055 88 0 0.0 1.7 0.00 0.00 0.00 73 1019.6
20260902134557 86 126 0.0 1.7 0.00 0.00 0.00 76 1019.5
20260902133106 84 0 0.0 0.9 0.00 0.00 0.00 79 1019.3
20260902131604 81 0 0.0 0.9 0.00 0.00 0.00 83 1019.3
20260902130104 78 0 0.0 1.7 0.00 0.00 0.00 88 1019.3
20260902124558 75 0 0.0 0.9 0.00 0.00 0.00 95 1019.3
20260902123100 74 0 0.0 0.9 0.00 0.00 0.00 98 1019.0
20260902121552 72 0 0.0 0.0 0.00 0.00 0.00 98 1018.9
20260902120100 71 0 0.0 0.0 0.00 0.00 0.00 97 1018.9
20260902114557 71 0 0.0 0.0 0.00 0.00 0.00 97 1018.7
20260902113100 71 0 0.0 0.0 0.00 0.00 0.00 96 1018.5
20260902111600 71 0 0.0 0.0 0.00 0.00 0.00 96 1018.4
20260902104617 71 0 0.0 0.0 0.00 0.00 0.00 96 1018.4
20260902103053 71 0 0.0 0.0 0.00 0.00 0.00 96 1018.5
20260902101602 71 0 0.0 0.0 0.00 0.00 0.00 96 1018.4
20260902100123 71 0 0.0 0.0 0.00 0.00 0.00 95 1018.4
20260902094606 71 0 0.0 0.0 0.00 0.00 0.00 95 1018.4
20260902093120 71 0 0.0 0.0 0.00 0.00 0.00 95 1018.5
20260902091609 72 0 0.0 0.0 0.00 0.00 0.00 95 1018.3
20260902090104 72 0 0.0 0.0 0.00 0.00 0.00 95 1018.2
20260902084607 72 0 0.0 0.0 0.00 0.00 0.00 94 1018.0
20260902083108 72 0 0.0 0.0 0.00 0.00 0.00 94 1018.0
20260902081615 72 0 0.0 0.0 0.00 0.00 0.00 94 1017.9
20260902080100 73 0 0.0 0.0 0.00 0.00 0.00 94 1017.8
20260902074600 73 0 0.0 0.0 0.00 0.00 0.00 93 1017.7
20260902073056 73 0 0.0 0.0 0.00 0.00 0.00 93 1017.7
20260902071602 73 0 0.0 0.0 0.00 0.00 0.00 93 1017.6
20260902070056 73 0 0.0 0.0 0.00 0.00 0.00 92 1017.6
20260902064608 74 0 0.0 0.0 0.00 0.00 0.00 92 1017.6
20260902063127 74 0 0.0 0.0 0.00 0.00 0.00 92 1017.6
20260902061602 74 0 0.0 0.0 0.00 0.00 0.00 92 1017.6
20260902060133 74 0 0.0 0.0 0.00 0.00 0.00 91 1017.9
20260902054600 75 0 0.0 0.0 0.00 0.00 0.00 91 1018.0
20260902053102 75 0 0.0 0.0 0.00 0.00 0.00 90 1017.9
20260902051609 75 0 0.0 0.0 0.00 0.00 0.00 90 1017.7
20260902050058 76 0 0.0 0.0 0.00 0.00 0.00 89 1017.7
20260902044558 76 0 0.0 0.0 0.00 0.00 0.00 88 1017.6
20260902043110 76 0 0.0 0.0 0.00 0.00 0.00 88 1017.8
20260902041600 77 0 0.0 0.0 0.00 0.00 0.00 87 1017.8
20260902034557 77 0 0.0 0.0 0.00 0.00 0.00 85 1017.8
20260902033117 78 0 0.0 0.0 0.00 0.00 0.00 85 1017.8
20260902031601 78 0 0.0 0.0 0.00 0.00 0.00 84 1017.8
20260902030057 79 0 0.0 0.0 0.00 0.00 0.00 83 1017.9
20260902024608 79 0 0.0 0.0 0.00 0.00 0.00 83 1017.9
20260902023058 80 0 0.0 0.0 0.00 0.00 0.00 81 1017.8
20260902021558 80 0 0.0 0.0 0.00 0.00 0.00 80 1017.9
20260902020131 81 0 0.0 0.0 0.00 0.00 0.00 79 1017.9
20260902014602 81 0 0.0 0.0 0.00 0.00 0.00 78 1017.7
20260902013058 82 0 0.0 0.0 0.00 0.00 0.00 76 1017.6